sensor_id;sensor_type;location;lat;lon;timestamp;P1;durP1;ratioP1;P2;durP2;ratioP2
24383;SDS011;12504;52.870;8.798;2024-01-06T00:01:42;23.25;;;9.65;;
24383;SDS011;12504;52.870;8.798;2024-01-06T00:04:08;24.00;;;10.45;;
24383;SDS011;12504;52.870;8.798;2024-01-06T00:06:34;27.27;;;11.07;;
24383;SDS011;12504;52.870;8.798;2024-01-06T00:09:01;29.60;;;11.13;;
24383;SDS011;12504;52.870;8.798;2024-01-06T00:11:27;22.42;;;9.82;;
24383;SDS011;12504;52.870;8.798;2024-01-06T00:13:53;25.88;;;10.85;;
24383;SDS011;12504;52.870;8.798;2024-01-06T00:16:19;24.70;;;9.90;;
24383;SDS011;12504;52.870;8.798;2024-01-06T00:18:46;22.02;;;9.60;;
24383;SDS011;12504;52.870;8.798;2024-01-06T00:21:12;22.33;;;10.13;;
24383;SDS011;12504;52.870;8.798;2024-01-06T00:23:41;25.30;;;10.48;;
24383;SDS011;12504;52.870;8.798;2024-01-06T00:26:07;26.98;;;11.52;;
24383;SDS011;12504;52.870;8.798;2024-01-06T00:28:34;25.20;;;10.38;;
24383;SDS011;12504;52.870;8.798;2024-01-06T00:31:00;24.23;;;9.93;;
24383;SDS011;12504;52.870;8.798;2024-01-06T00:33:26;25.55;;;10.93;;
24383;SDS011;12504;52.870;8.798;2024-01-06T00:35:52;20.92;;;9.80;;
24383;SDS011;12504;52.870;8.798;2024-01-06T00:38:20;24.15;;;9.85;;
24383;SDS011;12504;52.870;8.798;2024-01-06T00:40:46;25.60;;;10.93;;
24383;SDS011;12504;52.870;8.798;2024-01-06T00:43:12;30.42;;;11.38;;
24383;SDS011;12504;52.870;8.798;2024-01-06T00:45:38;25.95;;;9.63;;
24383;SDS011;12504;52.870;8.798;2024-01-06T00:48:04;19.92;;;9.52;;
24383;SDS011;12504;52.870;8.798;2024-01-06T00:50:30;25.63;;;9.75;;
24383;SDS011;12504;52.870;8.798;2024-01-06T00:52:56;24.80;;;11.73;;
24383;SDS011;12504;52.870;8.798;2024-01-06T00:55:22;23.38;;;10.32;;
24383;SDS011;12504;52.870;8.798;2024-01-06T00:57:50;28.33;;;11.65;;
24383;SDS011;12504;52.870;8.798;2024-01-06T01:00:16;23.15;;;9.57;;
24383;SDS011;12504;52.870;8.798;2024-01-06T01:02:42;26.98;;;10.52;;
24383;SDS011;12504;52.870;8.798;2024-01-06T01:05:08;25.77;;;10.02;;
24383;SDS011;12504;52.870;8.798;2024-01-06T01:07:34;23.13;;;9.93;;
24383;SDS011;12504;52.870;8.798;2024-01-06T01:10:00;24.60;;;10.30;;
24383;SDS011;12504;52.870;8.798;2024-01-06T01:12:26;23.95;;;10.23;;
24383;SDS011;12504;52.870;8.798;2024-01-06T01:14:52;22.10;;;10.20;;
24383;SDS011;12504;52.870;8.798;2024-01-06T01:17:19;20.27;;;8.80;;
24383;SDS011;12504;52.870;8.798;2024-01-06T01:19:45;22.88;;;9.75;;
24383;SDS011;12504;52.870;8.798;2024-01-06T01:22:11;24.90;;;10.10;;
24383;SDS011;12504;52.870;8.798;2024-01-06T01:24:37;26.50;;;9.27;;
24383;SDS011;12504;52.870;8.798;2024-01-06T01:27:06;27.42;;;11.07;;
24383;SDS011;12504;52.870;8.798;2024-01-06T01:29:32;22.75;;;9.57;;
24383;SDS011;12504;52.870;8.798;2024-01-06T01:31:58;25.80;;;10.70;;
24383;SDS011;12504;52.870;8.798;2024-01-06T01:34:24;24.67;;;10.35;;
24383;SDS011;12504;52.870;8.798;2024-01-06T01:36:50;23.50;;;10.10;;
24383;SDS011;12504;52.870;8.798;2024-01-06T01:39:16;24.73;;;9.50;;
24383;SDS011;12504;52.870;8.798;2024-01-06T01:41:43;23.52;;;9.35;;
24383;SDS011;12504;52.870;8.798;2024-01-06T01:44:09;22.88;;;8.73;;
24383;SDS011;12504;52.870;8.798;2024-01-06T01:46:35;21.88;;;9.63;;
24383;SDS011;12504;52.870;8.798;2024-01-06T01:49:01;27.33;;;10.50;;
24383;SDS011;12504;52.870;8.798;2024-01-06T01:51:29;19.35;;;8.95;;
24383;SDS011;12504;52.870;8.798;2024-01-06T01:53:56;19.48;;;9.27;;
24383;SDS011;12504;52.870;8.798;2024-01-06T01:56:23;27.80;;;8.98;;
24383;SDS011;12504;52.870;8.798;2024-01-06T01:58:50;22.45;;;9.15;;
24383;SDS011;12504;52.870;8.798;2024-01-06T02:01:17;23.10;;;9.70;;
24383;SDS011;12504;52.870;8.798;2024-01-06T02:03:43;20.35;;;8.75;;
24383;SDS011;12504;52.870;8.798;2024-01-06T02:06:09;23.67;;;10.25;;
24383;SDS011;12504;52.870;8.798;2024-01-06T02:08:35;23.83;;;9.80;;
24383;SDS011;12504;52.870;8.798;2024-01-06T02:11:02;23.83;;;8.57;;
24383;SDS011;12504;52.870;8.798;2024-01-06T02:13:32;21.33;;;10.05;;
24383;SDS011;12504;52.870;8.798;2024-01-06T02:16:00;18.95;;;7.78;;
24383;SDS011;12504;52.870;8.798;2024-01-06T02:18:26;28.17;;;10.00;;
24383;SDS011;12504;52.870;8.798;2024-01-06T02:20:52;21.45;;;9.02;;
24383;SDS011;12504;52.870;8.798;2024-01-06T02:23:18;19.75;;;9.57;;
24383;SDS011;12504;52.870;8.798;2024-01-06T02:25:44;23.83;;;9.20;;
24383;SDS011;12504;52.870;8.798;2024-01-06T02:28:10;26.50;;;8.75;;
24383;SDS011;12504;52.870;8.798;2024-01-06T02:30:36;22.83;;;9.30;;
24383;SDS011;12504;52.870;8.798;2024-01-06T02:33:03;22.05;;;8.55;;
24383;SDS011;12504;52.870;8.798;2024-01-06T02:35:29;23.50;;;9.20;;
24383;SDS011;12504;52.870;8.798;2024-01-06T02:37:55;17.92;;;7.85;;
24383;SDS011;12504;52.870;8.798;2024-01-06T02:40:21;25.10;;;9.88;;
24383;SDS011;12504;52.870;8.798;2024-01-06T02:42:47;24.45;;;9.98;;
24383;SDS011;12504;52.870;8.798;2024-01-06T02:45:13;18.55;;;8.60;;
24383;SDS011;12504;52.870;8.798;2024-01-06T02:47:39;20.92;;;8.18;;
24383;SDS011;12504;52.870;8.798;2024-01-06T02:50:05;21.83;;;7.63;;
24383;SDS011;12504;52.870;8.798;2024-01-06T02:52:31;22.35;;;9.35;;
24383;SDS011;12504;52.870;8.798;2024-01-06T02:54:58;22.75;;;9.48;;
24383;SDS011;12504;52.870;8.798;2024-01-06T02:57:24;19.42;;;7.57;;
24383;SDS011;12504;52.870;8.798;2024-01-06T02:59:50;22.80;;;8.48;;
24383;SDS011;12504;52.870;8.798;2024-01-06T03:02:16;23.65;;;8.93;;
24383;SDS011;12504;52.870;8.798;2024-01-06T03:04:42;19.00;;;8.45;;
24383;SDS011;12504;52.870;8.798;2024-01-06T03:07:08;22.13;;;8.23;;
24383;SDS011;12504;52.870;8.798;2024-01-06T03:09:35;24.17;;;8.48;;
24383;SDS011;12504;52.870;8.798;2024-01-06T03:12:01;17.23;;;8.10;;
24383;SDS011;12504;52.870;8.798;2024-01-06T03:14:27;25.50;;;8.80;;
24383;SDS011;12504;52.870;8.798;2024-01-06T03:16:53;19.17;;;7.22;;
24383;SDS011;12504;52.870;8.798;2024-01-06T03:19:20;20.67;;;8.68;;
24383;SDS011;12504;52.870;8.798;2024-01-06T03:21:51;17.48;;;8.65;;
24383;SDS011;12504;52.870;8.798;2024-01-06T03:24:17;23.42;;;9.00;;
24383;SDS011;12504;52.870;8.798;2024-01-06T03:26:43;18.50;;;8.98;;
24383;SDS011;12504;52.870;8.798;2024-01-06T03:29:09;20.27;;;8.50;;
24383;SDS011;12504;52.870;8.798;2024-01-06T03:31:35;17.95;;;7.45;;
24383;SDS011;12504;52.870;8.798;2024-01-06T03:34:01;18.58;;;8.57;;
24383;SDS011;12504;52.870;8.798;2024-01-06T03:36:27;18.48;;;8.98;;
24383;SDS011;12504;52.870;8.798;2024-01-06T03:38:53;17.65;;;7.88;;
24383;SDS011;12504;52.870;8.798;2024-01-06T03:41:19;22.95;;;7.78;;
24383;SDS011;12504;52.870;8.798;2024-01-06T03:43:45;17.10;;;8.13;;
24383;SDS011;12504;52.870;8.798;2024-01-06T03:46:11;17.73;;;6.95;;
24383;SDS011;12504;52.870;8.798;2024-01-06T03:48:44;18.20;;;8.02;;
24383;SDS011;12504;52.870;8.798;2024-01-06T03:51:12;15.95;;;6.32;;
24383;SDS011;12504;52.870;8.798;2024-01-06T03:53:38;15.30;;;6.85;;
24383;SDS011;12504;52.870;8.798;2024-01-06T03:56:05;20.45;;;8.52;;
24383;SDS011;12504;52.870;8.798;2024-01-06T03:58:31;20.20;;;8.07;;
24383;SDS011;12504;52.870;8.798;2024-01-06T04:00:57;16.35;;;6.60;;
24383;SDS011;12504;52.870;8.798;2024-01-06T04:03:23;23.20;;;8.15;;
24383;SDS011;12504;52.870;8.798;2024-01-06T04:05:49;14.32;;;6.55;;
24383;SDS011;12504;52.870;8.798;2024-01-06T04:08:17;15.98;;;6.03;;
24383;SDS011;12504;52.870;8.798;2024-01-06T04:10:43;15.13;;;7.22;;
24383;SDS011;12504;52.870;8.798;2024-01-06T04:13:10;19.73;;;6.72;;
24383;SDS011;12504;52.870;8.798;2024-01-06T04:15:37;12.00;;;5.60;;
24383;SDS011;12504;52.870;8.798;2024-01-06T04:18:03;12.52;;;5.32;;
24383;SDS011;12504;52.870;8.798;2024-01-06T04:20:30;12.90;;;6.28;;
24383;SDS011;12504;52.870;8.798;2024-01-06T04:22:57;14.15;;;6.20;;
24383;SDS011;12504;52.870;8.798;2024-01-06T04:25:23;16.27;;;6.60;;
24383;SDS011;12504;52.870;8.798;2024-01-06T04:27:49;15.43;;;6.15;;
24383;SDS011;12504;52.870;8.798;2024-01-06T04:30:15;16.23;;;5.53;;
24383;SDS011;12504;52.870;8.798;2024-01-06T04:32:42;10.55;;;5.22;;
24383;SDS011;12504;52.870;8.798;2024-01-06T04:35:08;13.20;;;5.47;;
24383;SDS011;12504;52.870;8.798;2024-01-06T04:37:34;11.40;;;5.25;;
24383;SDS011;12504;52.870;8.798;2024-01-06T04:40:00;9.63;;;4.78;;
24383;SDS011;12504;52.870;8.798;2024-01-06T04:42:26;11.73;;;5.65;;
24383;SDS011;12504;52.870;8.798;2024-01-06T04:44:52;12.05;;;4.80;;
24383;SDS011;12504;52.870;8.798;2024-01-06T04:47:18;12.13;;;4.85;;
24383;SDS011;12504;52.870;8.798;2024-01-06T04:49:45;16.73;;;5.70;;
24383;SDS011;12504;52.870;8.798;2024-01-06T04:52:11;12.32;;;4.55;;
24383;SDS011;12504;52.870;8.798;2024-01-06T04:54:37;12.00;;;4.72;;
24383;SDS011;12504;52.870;8.798;2024-01-06T04:57:03;9.90;;;4.82;;
24383;SDS011;12504;52.870;8.798;2024-01-06T04:59:30;10.70;;;4.57;;
24383;SDS011;12504;52.870;8.798;2024-01-06T05:01:57;10.77;;;4.75;;
24383;SDS011;12504;52.870;8.798;2024-01-06T05:04:23;10.57;;;4.28;;
24383;SDS011;12504;52.870;8.798;2024-01-06T05:06:50;12.10;;;4.88;;
24383;SDS011;12504;52.870;8.798;2024-01-06T05:09:17;9.38;;;4.28;;
24383;SDS011;12504;52.870;8.798;2024-01-06T05:11:43;10.93;;;4.47;;
24383;SDS011;12504;52.870;8.798;2024-01-06T05:14:10;12.35;;;5.15;;
24383;SDS011;12504;52.870;8.798;2024-01-06T05:16:36;9.85;;;4.70;;
24383;SDS011;12504;52.870;8.798;2024-01-06T05:19:02;14.68;;;5.40;;
24383;SDS011;12504;52.870;8.798;2024-01-06T05:21:28;10.40;;;4.63;;
24383;SDS011;12504;52.870;8.798;2024-01-06T05:23:54;14.98;;;5.97;;
24383;SDS011;12504;52.870;8.798;2024-01-06T05:26:20;8.77;;;4.72;;
24383;SDS011;12504;52.870;8.798;2024-01-06T05:28:46;10.00;;;4.45;;
24383;SDS011;12504;52.870;8.798;2024-01-06T05:31:12;13.23;;;4.93;;
24383;SDS011;12504;52.870;8.798;2024-01-06T05:33:38;15.38;;;5.38;;
24383;SDS011;12504;52.870;8.798;2024-01-06T05:36:05;8.85;;;4.90;;
24383;SDS011;12504;52.870;8.798;2024-01-06T05:38:31;10.90;;;4.60;;
24383;SDS011;12504;52.870;8.798;2024-01-06T05:40:57;12.43;;;5.50;;
24383;SDS011;12504;52.870;8.798;2024-01-06T05:43:24;11.73;;;5.78;;
24383;SDS011;12504;52.870;8.798;2024-01-06T05:45:50;11.68;;;4.75;;
24383;SDS011;12504;52.870;8.798;2024-01-06T05:48:16;14.10;;;4.80;;
24383;SDS011;12504;52.870;8.798;2024-01-06T05:50:42;12.32;;;5.30;;
24383;SDS011;12504;52.870;8.798;2024-01-06T05:53:08;17.75;;;5.85;;
24383;SDS011;12504;52.870;8.798;2024-01-06T05:55:35;14.18;;;5.03;;
24383;SDS011;12504;52.870;8.798;2024-01-06T05:58:01;13.27;;;5.47;;
24383;SDS011;12504;52.870;8.798;2024-01-06T06:00:27;12.10;;;5.50;;
24383;SDS011;12504;52.870;8.798;2024-01-06T06:02:56;11.30;;;5.82;;
24383;SDS011;12504;52.870;8.798;2024-01-06T06:05:22;12.13;;;5.20;;
24383;SDS011;12504;52.870;8.798;2024-01-06T06:07:48;12.73;;;5.00;;
24383;SDS011;12504;52.870;8.798;2024-01-06T06:10:15;11.82;;;4.53;;
24383;SDS011;12504;52.870;8.798;2024-01-06T06:12:43;12.82;;;5.90;;
24383;SDS011;12504;52.870;8.798;2024-01-06T06:15:09;15.73;;;6.55;;
24383;SDS011;12504;52.870;8.798;2024-01-06T06:17:35;16.00;;;5.60;;
24383;SDS011;12504;52.870;8.798;2024-01-06T06:20:02;12.60;;;5.28;;
24383;SDS011;12504;52.870;8.798;2024-01-06T06:22:28;15.23;;;5.70;;
24383;SDS011;12504;52.870;8.798;2024-01-06T06:24:58;18.02;;;7.05;;
24383;SDS011;12504;52.870;8.798;2024-01-06T06:27:24;16.77;;;6.93;;
24383;SDS011;12504;52.870;8.798;2024-01-06T06:29:50;14.82;;;6.22;;
24383;SDS011;12504;52.870;8.798;2024-01-06T06:32:16;14.60;;;6.38;;
24383;SDS011;12504;52.870;8.798;2024-01-06T06:34:42;14.73;;;6.07;;
24383;SDS011;12504;52.870;8.798;2024-01-06T06:37:08;11.93;;;5.07;;
24383;SDS011;12504;52.870;8.798;2024-01-06T06:39:35;12.73;;;6.70;;
24383;SDS011;12504;52.870;8.798;2024-01-06T06:42:01;15.80;;;6.63;;
24383;SDS011;12504;52.870;8.798;2024-01-06T06:44:28;14.52;;;6.00;;
24383;SDS011;12504;52.870;8.798;2024-01-06T06:46:56;14.80;;;6.18;;
24383;SDS011;12504;52.870;8.798;2024-01-06T06:49:23;14.05;;;5.45;;
24383;SDS011;12504;52.870;8.798;2024-01-06T06:51:49;10.52;;;5.13;;
24383;SDS011;12504;52.870;8.798;2024-01-06T06:54:15;11.27;;;4.97;;
24383;SDS011;12504;52.870;8.798;2024-01-06T06:56:41;13.13;;;5.60;;
24383;SDS011;12504;52.870;8.798;2024-01-06T06:59:08;21.20;;;5.32;;
24383;SDS011;12504;52.870;8.798;2024-01-06T07:01:34;12.48;;;4.97;;
24383;SDS011;12504;52.870;8.798;2024-01-06T07:04:01;13.40;;;5.68;;
24383;SDS011;12504;52.870;8.798;2024-01-06T07:06:27;13.40;;;5.70;;
24383;SDS011;12504;52.870;8.798;2024-01-06T07:08:54;8.25;;;4.72;;
24383;SDS011;12504;52.870;8.798;2024-01-06T07:11:20;13.95;;;5.95;;
24383;SDS011;12504;52.870;8.798;2024-01-06T07:13:46;11.80;;;5.28;;
24383;SDS011;12504;52.870;8.798;2024-01-06T07:16:12;16.08;;;6.90;;
24383;SDS011;12504;52.870;8.798;2024-01-06T07:18:38;14.32;;;5.47;;
24383;SDS011;12504;52.870;8.798;2024-01-06T07:21:05;10.98;;;5.63;;
24383;SDS011;12504;52.870;8.798;2024-01-06T07:23:31;10.48;;;4.80;;
24383;SDS011;12504;52.870;8.798;2024-01-06T07:25:57;14.05;;;6.43;;
24383;SDS011;12504;52.870;8.798;2024-01-06T07:28:24;13.88;;;5.68;;
24383;SDS011;12504;52.870;8.798;2024-01-06T07:30:50;14.10;;;6.57;;
24383;SDS011;12504;52.870;8.798;2024-01-06T07:33:16;14.18;;;7.22;;
24383;SDS011;12504;52.870;8.798;2024-01-06T07:35:42;13.40;;;5.35;;
24383;SDS011;12504;52.870;8.798;2024-01-06T07:38:09;13.50;;;5.95;;
24383;SDS011;12504;52.870;8.798;2024-01-06T07:40:37;14.70;;;5.85;;
24383;SDS011;12504;52.870;8.798;2024-01-06T07:43:04;15.55;;;5.50;;
24383;SDS011;12504;52.870;8.798;2024-01-06T07:45:30;17.98;;;6.38;;
24383;SDS011;12504;52.870;8.798;2024-01-06T07:47:57;12.82;;;5.88;;
24383;SDS011;12504;52.870;8.798;2024-01-06T07:50:23;12.15;;;5.75;;
24383;SDS011;12504;52.870;8.798;2024-01-06T07:52:49;18.58;;;6.70;;
24383;SDS011;12504;52.870;8.798;2024-01-06T07:55:18;17.02;;;7.28;;
24383;SDS011;12504;52.870;8.798;2024-01-06T07:57:45;13.82;;;6.20;;
24383;SDS011;12504;52.870;8.798;2024-01-06T08:00:11;14.20;;;6.20;;
24383;SDS011;12504;52.870;8.798;2024-01-06T08:02:41;14.00;;;5.70;;
24383;SDS011;12504;52.870;8.798;2024-01-06T08:05:07;13.05;;;5.60;;
24383;SDS011;12504;52.870;8.798;2024-01-06T08:07:34;14.30;;;6.60;;
24383;SDS011;12504;52.870;8.798;2024-01-06T08:10:00;23.00;;;7.30;;
24383;SDS011;12504;52.870;8.798;2024-01-06T08:12:30;13.88;;;6.45;;
24383;SDS011;12504;52.870;8.798;2024-01-06T08:14:56;11.32;;;6.07;;
24383;SDS011;12504;52.870;8.798;2024-01-06T08:17:22;13.85;;;6.95;;
24383;SDS011;12504;52.870;8.798;2024-01-06T08:19:48;19.73;;;5.85;;
24383;SDS011;12504;52.870;8.798;2024-01-06T08:22:14;13.40;;;6.25;;
24383;SDS011;12504;52.870;8.798;2024-01-06T08:24:40;13.55;;;6.32;;
24383;SDS011;12504;52.870;8.798;2024-01-06T08:27:06;16.65;;;6.80;;
24383;SDS011;12504;52.870;8.798;2024-01-06T08:29:33;11.60;;;6.50;;
24383;SDS011;12504;52.870;8.798;2024-01-06T08:31:59;14.25;;;6.47;;
24383;SDS011;12504;52.870;8.798;2024-01-06T08:34:25;16.20;;;7.20;;
24383;SDS011;12504;52.870;8.798;2024-01-06T08:36:52;13.13;;;6.55;;
24383;SDS011;12504;52.870;8.798;2024-01-06T08:39:18;13.60;;;5.82;;
24383;SDS011;12504;52.870;8.798;2024-01-06T08:41:44;16.88;;;7.10;;
24383;SDS011;12504;52.870;8.798;2024-01-06T08:44:11;13.38;;;7.13;;
24383;SDS011;12504;52.870;8.798;2024-01-06T08:46:37;16.85;;;6.90;;
24383;SDS011;12504;52.870;8.798;2024-01-06T08:49:03;16.50;;;5.65;;
24383;SDS011;12504;52.870;8.798;2024-01-06T08:51:30;15.75;;;7.05;;
24383;SDS011;12504;52.870;8.798;2024-01-06T08:53:56;20.55;;;6.38;;
24383;SDS011;12504;52.870;8.798;2024-01-06T08:56:22;20.90;;;6.70;;
24383;SDS011;12504;52.870;8.798;2024-01-06T08:58:48;11.05;;;5.25;;
24383;SDS011;12504;52.870;8.798;2024-01-06T09:01:14;15.45;;;6.22;;
24383;SDS011;12504;52.870;8.798;2024-01-06T09:03:40;18.23;;;6.95;;
24383;SDS011;12504;52.870;8.798;2024-01-06T09:06:06;17.05;;;6.82;;
24383;SDS011;12504;52.870;8.798;2024-01-06T09:08:32;13.13;;;6.05;;
24383;SDS011;12504;52.870;8.798;2024-01-06T09:10:58;18.60;;;7.25;;
24383;SDS011;12504;52.870;8.798;2024-01-06T09:13:24;17.70;;;7.38;;
24383;SDS011;12504;52.870;8.798;2024-01-06T09:15:51;11.57;;;6.15;;
24383;SDS011;12504;52.870;8.798;2024-01-06T09:18:17;18.05;;;7.38;;
24383;SDS011;12504;52.870;8.798;2024-01-06T09:20:43;16.52;;;8.52;;
24383;SDS011;12504;52.870;8.798;2024-01-06T09:23:12;18.52;;;7.47;;
24383;SDS011;12504;52.870;8.798;2024-01-06T09:25:38;15.07;;;7.32;;
24383;SDS011;12504;52.870;8.798;2024-01-06T09:28:05;25.33;;;7.75;;
24383;SDS011;12504;52.870;8.798;2024-01-06T09:30:31;14.70;;;6.80;;
24383;SDS011;12504;52.870;8.798;2024-01-06T09:32:57;15.27;;;7.30;;
24383;SDS011;12504;52.870;8.798;2024-01-06T09:35:23;16.23;;;7.47;;
24383;SDS011;12504;52.870;8.798;2024-01-06T09:37:49;17.52;;;6.65;;
24383;SDS011;12504;52.870;8.798;2024-01-06T09:40:20;16.60;;;7.07;;
24383;SDS011;12504;52.870;8.798;2024-01-06T09:42:46;18.80;;;8.32;;
24383;SDS011;12504;52.870;8.798;2024-01-06T09:45:12;23.17;;;7.25;;
24383;SDS011;12504;52.870;8.798;2024-01-06T09:47:39;20.35;;;8.30;;
24383;SDS011;12504;52.870;8.798;2024-01-06T09:50:06;16.35;;;7.03;;
24383;SDS011;12504;52.870;8.798;2024-01-06T09:52:35;17.63;;;7.88;;
24383;SDS011;12504;52.870;8.798;2024-01-06T09:55:05;15.93;;;8.13;;
24383;SDS011;12504;52.870;8.798;2024-01-06T09:57:35;14.10;;;6.80;;
24383;SDS011;12504;52.870;8.798;2024-01-06T10:00:02;15.82;;;7.07;;
24383;SDS011;12504;52.870;8.798;2024-01-06T10:02:36;15.13;;;7.05;;
24383;SDS011;12504;52.870;8.798;2024-01-06T10:05:03;14.45;;;6.45;;
24383;SDS011;12504;52.870;8.798;2024-01-06T10:07:29;20.25;;;7.32;;
24383;SDS011;12504;52.870;8.798;2024-01-06T10:09:55;12.00;;;6.07;;
24383;SDS011;12504;52.870;8.798;2024-01-06T10:12:25;18.65;;;7.60;;
24383;SDS011;12504;52.870;8.798;2024-01-06T10:14:51;12.45;;;6.68;;
24383;SDS011;12504;52.870;8.798;2024-01-06T10:17:17;18.33;;;7.32;;
24383;SDS011;12504;52.870;8.798;2024-01-06T10:19:44;13.18;;;6.53;;
24383;SDS011;12504;52.870;8.798;2024-01-06T10:22:11;18.85;;;8.35;;
24383;SDS011;12504;52.870;8.798;2024-01-06T10:24:37;15.82;;;7.60;;
24383;SDS011;12504;52.870;8.798;2024-01-06T10:27:03;19.38;;;8.57;;
24383;SDS011;12504;52.870;8.798;2024-01-06T10:29:29;16.05;;;7.78;;
24383;SDS011;12504;52.870;8.798;2024-01-06T10:31:55;19.65;;;8.50;;
24383;SDS011;12504;52.870;8.798;2024-01-06T10:34:22;18.08;;;7.57;;
24383;SDS011;12504;52.870;8.798;2024-01-06T10:36:49;21.80;;;7.43;;
24383;SDS011;12504;52.870;8.798;2024-01-06T10:39:17;21.25;;;9.98;;
24383;SDS011;12504;52.870;8.798;2024-01-06T10:41:44;17.45;;;7.63;;
24383;SDS011;12504;52.870;8.798;2024-01-06T10:44:10;17.38;;;8.50;;
24383;SDS011;12504;52.870;8.798;2024-01-06T10:46:37;19.08;;;8.13;;
24383;SDS011;12504;52.870;8.798;2024-01-06T10:49:05;16.40;;;7.32;;
24383;SDS011;12504;52.870;8.798;2024-01-06T10:51:37;16.40;;;7.68;;
24383;SDS011;12504;52.870;8.798;2024-01-06T10:54:04;20.85;;;9.05;;
24383;SDS011;12504;52.870;8.798;2024-01-06T10:56:31;18.38;;;8.52;;
24383;SDS011;12504;52.870;8.798;2024-01-06T10:58:59;17.77;;;8.35;;
24383;SDS011;12504;52.870;8.798;2024-01-06T11:01:27;19.55;;;8.57;;
24383;SDS011;12504;52.870;8.798;2024-01-06T11:03:55;26.80;;;9.32;;
24383;SDS011;12504;52.870;8.798;2024-01-06T11:06:21;19.35;;;9.13;;
24383;SDS011;12504;52.870;8.798;2024-01-06T11:11:17;28.75;;;9.40;;
24383;SDS011;12504;52.870;8.798;2024-01-06T11:13:43;21.50;;;11.07;;
24383;SDS011;12504;52.870;8.798;2024-01-06T11:16:10;24.83;;;9.25;;
24383;SDS011;12504;52.870;8.798;2024-01-06T11:18:38;22.17;;;9.88;;
24383;SDS011;12504;52.870;8.798;2024-01-06T11:23:39;24.15;;;10.30;;
24383;SDS011;12504;52.870;8.798;2024-01-06T11:26:08;22.15;;;9.95;;
24383;SDS011;12504;52.870;8.798;2024-01-06T11:28:44;21.88;;;8.98;;
24383;SDS011;12504;52.870;8.798;2024-01-06T11:31:11;24.58;;;9.75;;
24383;SDS011;12504;52.870;8.798;2024-01-06T11:33:41;23.17;;;10.25;;
24383;SDS011;12504;52.870;8.798;2024-01-06T11:36:10;24.98;;;11.63;;
24383;SDS011;12504;52.870;8.798;2024-01-06T11:38:37;28.13;;;11.57;;
24383;SDS011;12504;52.870;8.798;2024-01-06T11:41:06;32.08;;;12.07;;
24383;SDS011;12504;52.870;8.798;2024-01-06T11:43:33;29.23;;;11.98;;
24383;SDS011;12504;52.870;8.798;2024-01-06T11:46:00;28.90;;;9.82;;
24383;SDS011;12504;52.870;8.798;2024-01-06T11:48:29;29.67;;;11.65;;
24383;SDS011;12504;52.870;8.798;2024-01-06T11:50:56;28.17;;;11.07;;
24383;SDS011;12504;52.870;8.798;2024-01-06T11:53:23;24.90;;;10.50;;
24383;SDS011;12504;52.870;8.798;2024-01-06T11:55:52;25.23;;;13.32;;
24383;SDS011;12504;52.870;8.798;2024-01-06T11:58:19;31.17;;;11.93;;
24383;SDS011;12504;52.870;8.798;2024-01-06T12:00:45;36.50;;;12.90;;
24383;SDS011;12504;52.870;8.798;2024-01-06T12:03:20;29.48;;;13.25;;
24383;SDS011;12504;52.870;8.798;2024-01-06T12:05:58;39.25;;;14.07;;
24383;SDS011;12504;52.870;8.798;2024-01-06T12:08:24;33.13;;;12.77;;
24383;SDS011;12504;52.870;8.798;2024-01-06T12:10:50;32.42;;;13.30;;
24383;SDS011;12504;52.870;8.798;2024-01-06T12:13:16;35.38;;;13.45;;
24383;SDS011;12504;52.870;8.798;2024-01-06T12:15:42;41.20;;;14.23;;
24383;SDS011;12504;52.870;8.798;2024-01-06T12:18:08;34.25;;;14.32;;
24383;SDS011;12504;52.870;8.798;2024-01-06T12:20:35;39.50;;;14.07;;
24383;SDS011;12504;52.870;8.798;2024-01-06T12:23:01;30.45;;;12.88;;
24383;SDS011;12504;52.870;8.798;2024-01-06T12:25:30;26.38;;;12.30;;
24383;SDS011;12504;52.870;8.798;2024-01-06T12:28:00;28.38;;;12.80;;
24383;SDS011;12504;52.870;8.798;2024-01-06T12:30:27;28.73;;;13.02;;
24383;SDS011;12504;52.870;8.798;2024-01-06T12:32:55;30.15;;;13.60;;
24383;SDS011;12504;52.870;8.798;2024-01-06T12:35:21;31.02;;;13.45;;
24383;SDS011;12504;52.870;8.798;2024-01-06T12:37:48;35.65;;;14.32;;
24383;SDS011;12504;52.870;8.798;2024-01-06T12:40:15;42.80;;;15.60;;
24383;SDS011;12504;52.870;8.798;2024-01-06T12:42:42;33.83;;;15.48;;
24383;SDS011;12504;52.870;8.798;2024-01-06T12:45:08;36.47;;;16.17;;
24383;SDS011;12504;52.870;8.798;2024-01-06T12:47:35;35.55;;;13.00;;
24383;SDS011;12504;52.870;8.798;2024-01-06T12:50:01;32.05;;;13.10;;
24383;SDS011;12504;52.870;8.798;2024-01-06T12:52:29;32.92;;;12.70;;
24383;SDS011;12504;52.870;8.798;2024-01-06T12:54:55;31.77;;;13.05;;
24383;SDS011;12504;52.870;8.798;2024-01-06T12:57:21;43.80;;;14.60;;
24383;SDS011;12504;52.870;8.798;2024-01-06T12:59:47;33.38;;;13.18;;
24383;SDS011;12504;52.870;8.798;2024-01-06T13:02:13;34.00;;;13.23;;
24383;SDS011;12504;52.870;8.798;2024-01-06T13:04:40;40.22;;;13.48;;
24383;SDS011;12504;52.870;8.798;2024-01-06T13:07:06;33.58;;;13.95;;
24383;SDS011;12504;52.870;8.798;2024-01-06T13:09:32;31.63;;;13.82;;
24383;SDS011;12504;52.870;8.798;2024-01-06T13:11:59;33.55;;;15.02;;
24383;SDS011;12504;52.870;8.798;2024-01-06T13:14:26;36.40;;;15.15;;
24383;SDS011;12504;52.870;8.798;2024-01-06T13:16:52;36.78;;;15.52;;
24383;SDS011;12504;52.870;8.798;2024-01-06T13:19:18;36.88;;;14.88;;
24383;SDS011;12504;52.870;8.798;2024-01-06T13:21:45;34.25;;;13.43;;
24383;SDS011;12504;52.870;8.798;2024-01-06T13:24:14;35.15;;;14.45;;
24383;SDS011;12504;52.870;8.798;2024-01-06T13:26:43;32.40;;;13.88;;
24383;SDS011;12504;52.870;8.798;2024-01-06T13:29:09;29.42;;;14.45;;
24383;SDS011;12504;52.870;8.798;2024-01-06T13:31:35;36.30;;;14.30;;
24383;SDS011;12504;52.870;8.798;2024-01-06T13:34:02;33.17;;;14.73;;
24383;SDS011;12504;52.870;8.798;2024-01-06T13:36:28;32.00;;;13.90;;
24383;SDS011;12504;52.870;8.798;2024-01-06T13:38:54;35.85;;;14.60;;
24383;SDS011;12504;52.870;8.798;2024-01-06T13:41:21;35.78;;;15.00;;
24383;SDS011;12504;52.870;8.798;2024-01-06T13:43:47;32.67;;;15.25;;
24383;SDS011;12504;52.870;8.798;2024-01-06T13:46:14;37.55;;;15.55;;
24383;SDS011;12504;52.870;8.798;2024-01-06T13:48:40;35.15;;;15.38;;
24383;SDS011;12504;52.870;8.798;2024-01-06T13:51:06;35.90;;;15.27;;
24383;SDS011;12504;52.870;8.798;2024-01-06T13:53:32;31.67;;;14.70;;
24383;SDS011;12504;52.870;8.798;2024-01-06T13:55:58;37.78;;;15.68;;
24383;SDS011;12504;52.870;8.798;2024-01-06T13:58:24;40.85;;;15.93;;
24383;SDS011;12504;52.870;8.798;2024-01-06T14:00:50;35.92;;;13.90;;
24383;SDS011;12504;52.870;8.798;2024-01-06T14:03:17;39.08;;;14.68;;
24383;SDS011;12504;52.870;8.798;2024-01-06T14:05:44;34.00;;;14.43;;
24383;SDS011;12504;52.870;8.798;2024-01-06T14:08:10;69.57;;;22.52;;
24383;SDS011;12504;52.870;8.798;2024-01-06T14:10:36;33.67;;;14.32;;
24383;SDS011;12504;52.870;8.798;2024-01-06T14:13:03;38.65;;;14.88;;
24383;SDS011;12504;52.870;8.798;2024-01-06T14:15:29;35.33;;;14.93;;
24383;SDS011;12504;52.870;8.798;2024-01-06T14:17:57;28.77;;;13.45;;
24383;SDS011;12504;52.870;8.798;2024-01-06T14:20:24;42.63;;;14.68;;
24383;SDS011;12504;52.870;8.798;2024-01-06T14:22:50;38.80;;;14.63;;
24383;SDS011;12504;52.870;8.798;2024-01-06T14:25:17;32.90;;;14.10;;
24383;SDS011;12504;52.870;8.798;2024-01-06T14:27:43;30.48;;;13.30;;
24383;SDS011;12504;52.870;8.798;2024-01-06T14:30:10;29.95;;;13.38;;
24383;SDS011;12504;52.870;8.798;2024-01-06T14:32:36;35.20;;;14.63;;